sensor_id;sensor_type;location;lat;lon;timestamp;P1;durP1;ratioP1;P2;durP2;ratioP2
52934;SDS011;38802;50.198;19.796;2022-12-16T00:01:23;80.10;;;36.80;;
52934;SDS011;38802;50.198;19.796;2022-12-16T00:03:51;83.90;;;38.90;;
52934;SDS011;38802;50.198;19.796;2022-12-16T00:06:22;83.10;;;36.30;;
52934;SDS011;38802;50.198;19.796;2022-12-16T00:08:50;86.50;;;38.30;;
52934;SDS011;38802;50.198;19.796;2022-12-16T00:11:17;87.60;;;38.70;;
52934;SDS011;38802;50.198;19.796;2022-12-16T00:13:45;81.20;;;39.90;;
52934;SDS011;38802;50.198;19.796;2022-12-16T00:16:13;97.40;;;41.70;;
52934;SDS011;38802;50.198;19.796;2022-12-16T00:18:42;83.60;;;38.00;;
52934;SDS011;38802;50.198;19.796;2022-12-16T00:21:09;90.50;;;40.50;;
52934;SDS011;38802;50.198;19.796;2022-12-16T00:23:37;93.70;;;41.70;;
52934;SDS011;38802;50.198;19.796;2022-12-16T00:26:07;84.00;;;38.80;;
52934;SDS011;38802;50.198;19.796;2022-12-16T00:28:35;97.10;;;40.00;;
52934;SDS011;38802;50.198;19.796;2022-12-16T00:31:02;90.90;;;37.70;;
52934;SDS011;38802;50.198;19.796;2022-12-16T00:33:30;85.60;;;41.90;;
52934;SDS011;38802;50.198;19.796;2022-12-16T00:35:58;96.20;;;39.50;;
52934;SDS011;38802;50.198;19.796;2022-12-16T00:38:25;88.90;;;40.50;;
52934;SDS011;38802;50.198;19.796;2022-12-16T00:40:52;101.40;;;42.50;;
52934;SDS011;38802;50.198;19.796;2022-12-16T00:43:19;92.70;;;40.90;;
52934;SDS011;38802;50.198;19.796;2022-12-16T00:45:46;100.10;;;41.30;;
52934;SDS011;38802;50.198;19.796;2022-12-16T00:48:13;94.20;;;42.70;;
52934;SDS011;38802;50.198;19.796;2022-12-16T00:50:43;89.20;;;40.70;;
52934;SDS011;38802;50.198;19.796;2022-12-16T00:53:14;94.80;;;41.90;;
52934;SDS011;38802;50.198;19.796;2022-12-16T00:55:41;89.90;;;41.10;;
52934;SDS011;38802;50.198;19.796;2022-12-16T00:58:08;93.80;;;41.00;;
52934;SDS011;38802;50.198;19.796;2022-12-16T01:00:35;93.70;;;41.90;;
52934;SDS011;38802;50.198;19.796;2022-12-16T01:03:03;87.40;;;40.10;;
52934;SDS011;38802;50.198;19.796;2022-12-16T01:05:30;88.00;;;43.10;;
52934;SDS011;38802;50.198;19.796;2022-12-16T01:07:57;92.40;;;39.30;;
52934;SDS011;38802;50.198;19.796;2022-12-16T01:10:24;92.00;;;42.10;;
52934;SDS011;38802;50.198;19.796;2022-12-16T01:12:51;99.00;;;43.50;;
52934;SDS011;38802;50.198;19.796;2022-12-16T01:15:19;98.90;;;41.90;;
52934;SDS011;38802;50.198;19.796;2022-12-16T01:17:45;80.00;;;39.30;;
52934;SDS011;38802;50.198;19.796;2022-12-16T01:20:12;82.50;;;39.10;;
52934;SDS011;38802;50.198;19.796;2022-12-16T01:22:39;92.90;;;41.60;;
52934;SDS011;38802;50.198;19.796;2022-12-16T01:25:08;86.70;;;38.50;;
52934;SDS011;38802;50.198;19.796;2022-12-16T01:27:38;80.40;;;36.70;;
52934;SDS011;38802;50.198;19.796;2022-12-16T01:30:05;84.80;;;40.00;;
52934;SDS011;38802;50.198;19.796;2022-12-16T01:32:34;73.30;;;35.60;;
52934;SDS011;38802;50.198;19.796;2022-12-16T01:35:01;86.90;;;38.30;;
52934;SDS011;38802;50.198;19.796;2022-12-16T01:37:28;76.30;;;37.60;;
52934;SDS011;38802;50.198;19.796;2022-12-16T01:39:55;81.80;;;40.20;;
52934;SDS011;38802;50.198;19.796;2022-12-16T01:42:22;85.40;;;37.60;;
52934;SDS011;38802;50.198;19.796;2022-12-16T01:44:49;76.40;;;36.10;;
52934;SDS011;38802;50.198;19.796;2022-12-16T01:47:19;78.50;;;37.50;;
52934;SDS011;38802;50.198;19.796;2022-12-16T01:50:00;70.90;;;34.50;;
52934;SDS011;38802;50.198;19.796;2022-12-16T01:52:31;76.50;;;33.80;;
52934;SDS011;38802;50.198;19.796;2022-12-16T01:57:50;76.30;;;34.90;;
52934;SDS011;38802;50.198;19.796;2022-12-16T02:00:24;75.60;;;35.30;;
52934;SDS011;38802;50.198;19.796;2022-12-16T02:02:51;82.70;;;37.20;;
52934;SDS011;38802;50.198;19.796;2022-12-16T02:05:19;78.30;;;36.40;;
52934;SDS011;38802;50.198;19.796;2022-12-16T02:18:50;75.50;;;36.20;;
52934;SDS011;38802;50.198;19.796;2022-12-16T02:21:30;77.70;;;33.30;;
52934;SDS011;38802;50.198;19.796;2022-12-16T02:30:03;68.50;;;34.10;;
52934;SDS011;38802;50.198;19.796;2022-12-16T02:38:32;64.80;;;29.50;;
52934;SDS011;38802;50.198;19.796;2022-12-16T02:41:10;70.70;;;32.40;;
52934;SDS011;38802;50.198;19.796;2022-12-16T02:43:58;70.70;;;33.60;;
52934;SDS011;38802;50.198;19.796;2022-12-16T02:46:29;77.70;;;35.90;;
52934;SDS011;38802;50.198;19.796;2022-12-16T02:51:39;62.70;;;31.90;;
52934;SDS011;38802;50.198;19.796;2022-12-16T02:54:06;67.40;;;33.80;;
52934;SDS011;38802;50.198;19.796;2022-12-16T02:56:39;64.60;;;33.70;;
52934;SDS011;38802;50.198;19.796;2022-12-16T03:02:29;57.60;;;31.20;;
52934;SDS011;38802;50.198;19.796;2022-12-16T03:05:11;62.40;;;30.00;;
52934;SDS011;38802;50.198;19.796;2022-12-16T03:07:40;55.70;;;30.30;;
52934;SDS011;38802;50.198;19.796;2022-12-16T03:10:11;58.50;;;27.00;;
52934;SDS011;38802;50.198;19.796;2022-12-16T03:12:43;62.40;;;32.20;;
52934;SDS011;38802;50.198;19.796;2022-12-16T03:15:12;52.70;;;28.60;;
52934;SDS011;38802;50.198;19.796;2022-12-16T03:17:43;54.90;;;28.70;;
52934;SDS011;38802;50.198;19.796;2022-12-16T03:23:23;55.20;;;27.70;;
52934;SDS011;38802;50.198;19.796;2022-12-16T03:25:58;54.00;;;29.80;;
52934;SDS011;38802;50.198;19.796;2022-12-16T03:31:38;52.60;;;26.10;;
52934;SDS011;38802;50.198;19.796;2022-12-16T03:36:38;50.40;;;27.70;;
52934;SDS011;38802;50.198;19.796;2022-12-16T03:39:06;47.10;;;25.40;;
52934;SDS011;38802;50.198;19.796;2022-12-16T03:41:34;51.50;;;26.80;;
52934;SDS011;38802;50.198;19.796;2022-12-16T03:44:02;53.80;;;26.90;;
52934;SDS011;38802;50.198;19.796;2022-12-16T03:46:29;48.40;;;26.60;;
52934;SDS011;38802;50.198;19.796;2022-12-16T03:48:56;58.90;;;28.30;;
52934;SDS011;38802;50.198;19.796;2022-12-16T03:51:23;52.10;;;26.60;;
52934;SDS011;38802;50.198;19.796;2022-12-16T03:53:49;42.50;;;23.80;;
52934;SDS011;38802;50.198;19.796;2022-12-16T03:56:16;46.10;;;25.30;;
52934;SDS011;38802;50.198;19.796;2022-12-16T03:58:43;50.50;;;26.20;;
52934;SDS011;38802;50.198;19.796;2022-12-16T04:01:10;49.60;;;28.30;;
52934;SDS011;38802;50.198;19.796;2022-12-16T04:03:37;49.10;;;27.40;;
52934;SDS011;38802;50.198;19.796;2022-12-16T04:06:04;52.10;;;27.00;;
52934;SDS011;38802;50.198;19.796;2022-12-16T04:08:31;47.60;;;25.10;;
52934;SDS011;38802;50.198;19.796;2022-12-16T04:10:58;48.90;;;26.40;;
52934;SDS011;38802;50.198;19.796;2022-12-16T04:13:43;47.30;;;26.30;;
52934;SDS011;38802;50.198;19.796;2022-12-16T04:16:29;44.10;;;26.90;;
52934;SDS011;38802;50.198;19.796;2022-12-16T04:19:21;45.90;;;27.70;;
52934;SDS011;38802;50.198;19.796;2022-12-16T04:22:15;42.80;;;25.40;;
52934;SDS011;38802;50.198;19.796;2022-12-16T04:25:06;39.50;;;25.60;;
52934;SDS011;38802;50.198;19.796;2022-12-16T04:27:36;40.10;;;24.20;;
52934;SDS011;38802;50.198;19.796;2022-12-16T04:30:03;38.30;;;23.80;;
52934;SDS011;38802;50.198;19.796;2022-12-16T04:32:54;36.70;;;23.90;;
52934;SDS011;38802;50.198;19.796;2022-12-16T04:35:44;43.70;;;25.90;;
52934;SDS011;38802;50.198;19.796;2022-12-16T04:38:29;46.20;;;22.60;;
52934;SDS011;38802;50.198;19.796;2022-12-16T04:41:16;41.20;;;25.20;;
52934;SDS011;38802;50.198;19.796;2022-12-16T04:44:01;48.10;;;23.30;;
52934;SDS011;38802;50.198;19.796;2022-12-16T04:46:48;40.30;;;25.00;;
52934;SDS011;38802;50.198;19.796;2022-12-16T04:49:35;46.60;;;24.80;;
52934;SDS011;38802;50.198;19.796;2022-12-16T04:52:21;42.70;;;23.10;;
52934;SDS011;38802;50.198;19.796;2022-12-16T04:55:07;43.40;;;23.70;;
52934;SDS011;38802;50.198;19.796;2022-12-16T04:57:53;37.10;;;24.50;;
52934;SDS011;38802;50.198;19.796;2022-12-16T05:00:41;37.20;;;22.60;;
52934;SDS011;38802;50.198;19.796;2022-12-16T05:03:27;33.20;;;22.20;;
52934;SDS011;38802;50.198;19.796;2022-12-16T05:06:13;36.90;;;23.30;;
52934;SDS011;38802;50.198;19.796;2022-12-16T05:08:59;38.30;;;22.90;;
52934;SDS011;38802;50.198;19.796;2022-12-16T05:11:45;36.70;;;22.40;;
52934;SDS011;38802;50.198;19.796;2022-12-16T05:14:30;40.80;;;21.40;;
52934;SDS011;38802;50.198;19.796;2022-12-16T05:17:16;33.40;;;21.60;;
52934;SDS011;38802;50.198;19.796;2022-12-16T05:20:02;35.20;;;22.60;;
52934;SDS011;38802;50.198;19.796;2022-12-16T05:22:48;36.70;;;21.90;;
52934;SDS011;38802;50.198;19.796;2022-12-16T05:25:33;36.50;;;24.40;;
52934;SDS011;38802;50.198;19.796;2022-12-16T05:28:19;33.50;;;20.60;;
52934;SDS011;38802;50.198;19.796;2022-12-16T05:31:05;36.70;;;21.30;;
52934;SDS011;38802;50.198;19.796;2022-12-16T05:33:50;34.10;;;22.60;;
52934;SDS011;38802;50.198;19.796;2022-12-16T05:36:35;31.70;;;21.30;;
52934;SDS011;38802;50.198;19.796;2022-12-16T05:39:21;29.00;;;21.40;;
52934;SDS011;38802;50.198;19.796;2022-12-16T05:42:07;33.80;;;21.10;;
52934;SDS011;38802;50.198;19.796;2022-12-16T05:44:52;32.50;;;22.70;;
52934;SDS011;38802;50.198;19.796;2022-12-16T05:47:38;30.30;;;18.40;;
52934;SDS011;38802;50.198;19.796;2022-12-16T05:50:24;33.80;;;20.30;;
52934;SDS011;38802;50.198;19.796;2022-12-16T05:53:10;34.90;;;22.70;;
52934;SDS011;38802;50.198;19.796;2022-12-16T05:55:57;40.50;;;22.20;;
52934;SDS011;38802;50.198;19.796;2022-12-16T05:58:43;34.60;;;21.90;;
52934;SDS011;38802;50.198;19.796;2022-12-16T06:01:36;32.30;;;20.60;;
52934;SDS011;38802;50.198;19.796;2022-12-16T06:04:21;32.00;;;20.90;;
52934;SDS011;38802;50.198;19.796;2022-12-16T06:07:11;27.00;;;19.50;;
52934;SDS011;38802;50.198;19.796;2022-12-16T06:09:56;34.70;;;22.60;;
52934;SDS011;38802;50.198;19.796;2022-12-16T06:12:44;37.10;;;22.10;;
52934;SDS011;38802;50.198;19.796;2022-12-16T06:15:31;36.10;;;21.40;;
52934;SDS011;38802;50.198;19.796;2022-12-16T06:18:18;30.40;;;17.90;;
52934;SDS011;38802;50.198;19.796;2022-12-16T06:21:03;31.20;;;20.50;;
52934;SDS011;38802;50.198;19.796;2022-12-16T06:23:48;36.20;;;23.60;;
52934;SDS011;38802;50.198;19.796;2022-12-16T06:26:34;32.60;;;20.70;;
52934;SDS011;38802;50.198;19.796;2022-12-16T06:29:19;31.90;;;22.50;;
52934;SDS011;38802;50.198;19.796;2022-12-16T06:32:04;39.50;;;22.20;;
52934;SDS011;38802;50.198;19.796;2022-12-16T06:34:50;32.20;;;22.70;;
52934;SDS011;38802;50.198;19.796;2022-12-16T06:37:35;35.50;;;20.50;;
52934;SDS011;38802;50.198;19.796;2022-12-16T06:40:21;38.60;;;22.30;;
52934;SDS011;38802;50.198;19.796;2022-12-16T06:43:06;37.70;;;25.00;;
52934;SDS011;38802;50.198;19.796;2022-12-16T06:45:52;34.30;;;21.10;;
52934;SDS011;38802;50.198;19.796;2022-12-16T06:48:37;39.50;;;24.40;;
52934;SDS011;38802;50.198;19.796;2022-12-16T06:51:23;35.00;;;22.60;;
52934;SDS011;38802;50.198;19.796;2022-12-16T06:54:08;38.90;;;23.40;;
52934;SDS011;38802;50.198;19.796;2022-12-16T06:56:53;32.20;;;20.70;;
52934;SDS011;38802;50.198;19.796;2022-12-16T06:59:42;37.00;;;22.80;;
52934;SDS011;38802;50.198;19.796;2022-12-16T07:02:27;36.00;;;21.90;;
52934;SDS011;38802;50.198;19.796;2022-12-16T07:05:13;33.80;;;22.90;;
52934;SDS011;38802;50.198;19.796;2022-12-16T07:07:59;38.80;;;23.50;;
52934;SDS011;38802;50.198;19.796;2022-12-16T07:10:44;37.00;;;22.70;;
52934;SDS011;38802;50.198;19.796;2022-12-16T07:13:43;40.00;;;24.10;;
52934;SDS011;38802;50.198;19.796;2022-12-16T07:16:29;35.80;;;21.60;;
52934;SDS011;38802;50.198;19.796;2022-12-16T07:19:15;33.60;;;20.90;;
52934;SDS011;38802;50.198;19.796;2022-12-16T07:22:00;42.90;;;21.90;;
52934;SDS011;38802;50.198;19.796;2022-12-16T07:24:46;32.10;;;19.60;;
52934;SDS011;38802;50.198;19.796;2022-12-16T07:27:32;37.30;;;21.50;;
52934;SDS011;38802;50.198;19.796;2022-12-16T07:30:17;37.30;;;20.40;;
52934;SDS011;38802;50.198;19.796;2022-12-16T07:33:03;33.30;;;21.50;;
52934;SDS011;38802;50.198;19.796;2022-12-16T07:35:48;32.40;;;20.70;;
52934;SDS011;38802;50.198;19.796;2022-12-16T07:38:34;33.40;;;19.20;;
52934;SDS011;38802;50.198;19.796;2022-12-16T07:41:20;35.20;;;20.00;;
52934;SDS011;38802;50.198;19.796;2022-12-16T07:44:05;34.00;;;21.70;;
52934;SDS011;38802;50.198;19.796;2022-12-16T07:46:50;29.80;;;19.20;;
52934;SDS011;38802;50.198;19.796;2022-12-16T07:49:35;30.30;;;19.70;;
52934;SDS011;38802;50.198;19.796;2022-12-16T07:52:21;29.80;;;20.30;;
52934;SDS011;38802;50.198;19.796;2022-12-16T07:55:07;30.90;;;19.10;;
52934;SDS011;38802;50.198;19.796;2022-12-16T07:57:54;37.80;;;20.70;;
52934;SDS011;38802;50.198;19.796;2022-12-16T08:00:40;27.70;;;19.80;;
52934;SDS011;38802;50.198;19.796;2022-12-16T08:03:28;27.60;;;18.20;;
52934;SDS011;38802;50.198;19.796;2022-12-16T08:06:21;26.60;;;17.40;;
52934;SDS011;38802;50.198;19.796;2022-12-16T08:09:07;30.60;;;17.80;;
52934;SDS011;38802;50.198;19.796;2022-12-16T08:11:53;27.70;;;19.30;;
52934;SDS011;38802;50.198;19.796;2022-12-16T08:14:42;27.40;;;20.00;;
52934;SDS011;38802;50.198;19.796;2022-12-16T08:17:28;28.00;;;17.30;;
52934;SDS011;38802;50.198;19.796;2022-12-16T08:20:14;28.80;;;18.30;;
52934;SDS011;38802;50.198;19.796;2022-12-16T08:22:59;28.60;;;19.00;;
52934;SDS011;38802;50.198;19.796;2022-12-16T08:25:45;29.50;;;19.20;;
52934;SDS011;38802;50.198;19.796;2022-12-16T08:28:30;28.50;;;19.00;;
52934;SDS011;38802;50.198;19.796;2022-12-16T08:31:15;28.60;;;19.60;;
52934;SDS011;38802;50.198;19.796;2022-12-16T08:34:01;24.50;;;17.30;;
52934;SDS011;38802;50.198;19.796;2022-12-16T08:36:46;25.60;;;15.90;;
52934;SDS011;38802;50.198;19.796;2022-12-16T08:42:38;22.30;;;16.40;;
52934;SDS011;38802;50.198;19.796;2022-12-16T08:45:24;20.60;;;15.60;;
52934;SDS011;38802;50.198;19.796;2022-12-16T08:48:10;27.60;;;17.40;;
52934;SDS011;38802;50.198;19.796;2022-12-16T08:50:59;26.70;;;16.00;;
52934;SDS011;38802;50.198;19.796;2022-12-16T08:53:46;26.80;;;18.40;;
52934;SDS011;38802;50.198;19.796;2022-12-16T08:56:31;26.40;;;18.60;;
52934;SDS011;38802;50.198;19.796;2022-12-16T08:59:17;29.50;;;18.30;;
52934;SDS011;38802;50.198;19.796;2022-12-16T09:02:02;26.00;;;16.70;;
52934;SDS011;38802;50.198;19.796;2022-12-16T09:04:48;24.10;;;18.90;;
52934;SDS011;38802;50.198;19.796;2022-12-16T09:07:33;23.60;;;16.70;;
52934;SDS011;38802;50.198;19.796;2022-12-16T09:10:21;29.10;;;18.50;;
52934;SDS011;38802;50.198;19.796;2022-12-16T09:13:07;25.00;;;17.50;;
52934;SDS011;38802;50.198;19.796;2022-12-16T09:15:55;28.10;;;17.90;;
52934;SDS011;38802;50.198;19.796;2022-12-16T09:18:46;26.40;;;17.60;;
52934;SDS011;38802;50.198;19.796;2022-12-16T09:21:32;30.00;;;20.10;;
52934;SDS011;38802;50.198;19.796;2022-12-16T09:24:20;31.30;;;17.90;;
52934;SDS011;38802;50.198;19.796;2022-12-16T09:27:12;28.00;;;19.50;;
52934;SDS011;38802;50.198;19.796;2022-12-16T09:29:58;29.30;;;18.80;;
52934;SDS011;38802;50.198;19.796;2022-12-16T09:32:44;26.10;;;17.40;;
52934;SDS011;38802;50.198;19.796;2022-12-16T09:35:30;30.70;;;19.10;;
52934;SDS011;38802;50.198;19.796;2022-12-16T09:38:17;31.10;;;19.60;;
52934;SDS011;38802;50.198;19.796;2022-12-16T09:41:24;26.50;;;17.60;;
52934;SDS011;38802;50.198;19.796;2022-12-16T09:50:30;27.10;;;17.50;;
52934;SDS011;38802;50.198;19.796;2022-12-16T09:53:19;25.60;;;17.60;;
52934;SDS011;38802;50.198;19.796;2022-12-16T09:56:11;29.00;;;17.90;;
52934;SDS011;38802;50.198;19.796;2022-12-16T09:59:01;28.80;;;18.90;;
52934;SDS011;38802;50.198;19.796;2022-12-16T10:01:54;27.60;;;18.90;;
52934;SDS011;38802;50.198;19.796;2022-12-16T10:04:40;32.70;;;20.70;;
52934;SDS011;38802;50.198;19.796;2022-12-16T10:07:29;31.00;;;20.60;;
52934;SDS011;38802;50.198;19.796;2022-12-16T10:13:42;23.60;;;16.90;;
52934;SDS011;38802;50.198;19.796;2022-12-16T10:20:39;28.20;;;19.80;;
52934;SDS011;38802;50.198;19.796;2022-12-16T10:23:32;26.70;;;19.00;;
52934;SDS011;38802;50.198;19.796;2022-12-16T10:26:33;36.20;;;21.90;;
52934;SDS011;38802;50.198;19.796;2022-12-16T10:29:29;32.20;;;20.80;;
52934;SDS011;38802;50.198;19.796;2022-12-16T10:32:24;35.00;;;21.40;;
52934;SDS011;38802;50.198;19.796;2022-12-16T10:35:21;28.40;;;20.40;;
52934;SDS011;38802;50.198;19.796;2022-12-16T10:38:46;32.70;;;21.80;;
52934;SDS011;38802;50.198;19.796;2022-12-16T10:41:39;30.10;;;20.30;;
52934;SDS011;38802;50.198;19.796;2022-12-16T10:44:28;34.20;;;20.40;;
52934;SDS011;38802;50.198;19.796;2022-12-16T10:47:21;25.70;;;18.80;;
52934;SDS011;38802;50.198;19.796;2022-12-16T10:50:11;32.80;;;22.30;;
52934;SDS011;38802;50.198;19.796;2022-12-16T10:53:20;42.50;;;23.90;;
52934;SDS011;38802;50.198;19.796;2022-12-16T10:59:00;36.50;;;23.40;;
52934;SDS011;38802;50.198;19.796;2022-12-16T11:01:58;38.80;;;22.90;;
52934;SDS011;38802;50.198;19.796;2022-12-16T11:04:49;40.30;;;25.00;;
52934;SDS011;38802;50.198;19.796;2022-12-16T11:10:35;52.40;;;28.40;;
52934;SDS011;38802;50.198;19.796;2022-12-16T11:13:24;43.30;;;24.30;;
52934;SDS011;38802;50.198;19.796;2022-12-16T11:16:14;45.70;;;25.80;;
52934;SDS011;38802;50.198;19.796;2022-12-16T11:22:18;38.20;;;22.80;;
52934;SDS011;38802;50.198;19.796;2022-12-16T11:31:02;49.10;;;25.40;;
52934;SDS011;38802;50.198;19.796;2022-12-16T11:33:51;44.70;;;26.60;;
52934;SDS011;38802;50.198;19.796;2022-12-16T11:36:39;46.50;;;25.00;;
52934;SDS011;38802;50.198;19.796;2022-12-16T11:39:28;47.20;;;24.90;;
52934;SDS011;38802;50.198;19.796;2022-12-16T11:42:20;47.80;;;26.50;;
52934;SDS011;38802;50.198;19.796;2022-12-16T11:45:13;42.00;;;23.60;;
52934;SDS011;38802;50.198;19.796;2022-12-16T11:48:02;60.60;;;29.60;;
52934;SDS011;38802;50.198;19.796;2022-12-16T11:50:55;73.00;;;34.90;;
52934;SDS011;38802;50.198;19.796;2022-12-16T11:53:43;60.70;;;33.80;;
52934;SDS011;38802;50.198;19.796;2022-12-16T11:56:41;84.20;;;36.70;;
52934;SDS011;38802;50.198;19.796;2022-12-16T11:59:40;48.00;;;27.00;;
52934;SDS011;38802;50.198;19.796;2022-12-16T12:02:35;64.20;;;29.50;;
52934;SDS011;38802;50.198;19.796;2022-12-16T12:05:29;51.40;;;26.50;;
52934;SDS011;38802;50.198;19.796;2022-12-16T12:48:36;55.70;;;29.10;;
52934;SDS011;38802;50.198;19.796;2022-12-16T12:54:43;49.20;;;29.80;;
52934;SDS011;38802;50.198;19.796;2022-12-16T12:57:45;63.40;;;31.80;;
52934;SDS011;38802;50.198;19.796;2022-12-16T13:00:34;55.20;;;29.10;;
52934;SDS011;38802;50.198;19.796;2022-12-16T13:03:34;53.90;;;29.80;;
52934;SDS011;38802;50.198;19.796;2022-12-16T13:06:25;62.90;;;32.70;;
52934;SDS011;38802;50.198;19.796;2022-12-16T13:09:24;52.90;;;30.80;;
52934;SDS011;38802;50.198;19.796;2022-12-16T13:12:28;62.10;;;31.80;;
52934;SDS011;38802;50.198;19.796;2022-12-16T13:15:35;52.10;;;29.90;;
52934;SDS011;38802;50.198;19.796;2022-12-16T13:18:26;61.00;;;34.30;;
52934;SDS011;38802;50.198;19.796;2022-12-16T13:27:13;61.40;;;32.50;;
52934;SDS011;38802;50.198;19.796;2022-12-16T13:30:16;64.20;;;32.80;;
52934;SDS011;38802;50.198;19.796;2022-12-16T13:33:21;59.90;;;33.10;;
52934;SDS011;38802;50.198;19.796;2022-12-16T13:36:14;69.70;;;37.00;;
52934;SDS011;38802;50.198;19.796;2022-12-16T13:39:07;68.80;;;35.50;;
52934;SDS011;38802;50.198;19.796;2022-12-16T13:42:05;77.10;;;38.60;;
52934;SDS011;38802;50.198;19.796;2022-12-16T13:46:11;58.80;;;33.90;;
52934;SDS011;38802;50.198;19.796;2022-12-16T13:48:39;77.70;;;38.50;;
52934;SDS011;38802;50.198;19.796;2022-12-16T13:57:28;80.00;;;38.80;;
52934;SDS011;38802;50.198;19.796;2022-12-16T14:00:20;79.90;;;40.50;;
52934;SDS011;38802;50.198;19.796;2022-12-16T14:03:19;90.70;;;45.20;;
52934;SDS011;38802;50.198;19.796;2022-12-16T14:06:26;84.00;;;40.30;;
52934;SDS011;38802;50.198;19.796;2022-12-16T14:09:18;83.00;;;43.50;;
52934;SDS011;38802;50.198;19.796;2022-12-16T14:15:31;58.20;;;30.80;;
52934;SDS011;38802;50.198;19.796;2022-12-16T14:21:50;62.60;;;33.80;;
52934;SDS011;38802;50.198;19.796;2022-12-16T14:24:42;64.00;;;33.70;;
52934;SDS011;38802;50.198;19.796;2022-12-16T14:27:28;71.40;;;37.90;;
52934;SDS011;38802;50.198;19.796;2022-12-16T14:30:19;61.60;;;33.40;;
52934;SDS011;38802;50.198;19.796;2022-12-16T14:33:14;57.40;;;29.20;;
52934;SDS011;38802;50.198;19.796;2022-12-16T14:39:27;67.40;;;32.90;;
52934;SDS011;38802;50.198;19.796;2022-12-16T14:51:28;72.30;;;36.30;;
52934;SDS011;38802;50.198;19.796;2022-12-16T14:57:24;67.50;;;32.40;;
52934;SDS011;38802;50.198;19.796;2022-12-16T15:06:38;75.30;;;41.50;;
52934;SDS011;38802;50.198;19.796;2022-12-16T15:09:40;76.40;;;36.60;;
52934;SDS011;38802;50.198;19.796;2022-12-16T15:12:33;72.10;;;36.40;;
52934;SDS011;38802;50.198;19.796;2022-12-16T15:15:25;88.40;;;42.00;;
52934;SDS011;38802;50.198;19.796;2022-12-16T15:18:16;75.80;;;38.00;;
52934;SDS011;38802;50.198;19.796;2022-12-16T15:21:05;74.10;;;41.40;;
52934;SDS011;38802;50.198;19.796;2022-12-16T15:23:54;72.80;;;38.60;;
52934;SDS011;38802;50.198;19.796;2022-12-16T15:26:40;82.30;;;42.00;;
52934;SDS011;38802;50.198;19.796;2022-12-16T15:41:25;91.30;;;44.30;;
52934;SDS011;38802;50.198;19.796;2022-12-16T15:44:16;101.60;;;44.60;;
52934;SDS011;38802;50.198;19.796;2022-12-16T15:47:03;103.50;;;44.70;;
52934;SDS011;38802;50.198;19.796;2022-12-16T15:49:51;102.80;;;45.60;;
52934;SDS011;38802;50.198;19.796;2022-12-16T15:52:40;100.70;;;45.70;;
52934;SDS011;38802;50.198;19.796;2022-12-16T16:01:07;107.10;;;47.80;;
52934;SDS011;38802;50.198;19.796;2022-12-16T16:03:54;109.90;;;47.90;;
52934;SDS011;38802;50.198;19.796;2022-12-16T16:06:44;102.70;;;45.70;;
52934;SDS011;38802;50.198;19.796;2022-12-16T16:09:33;107.10;;;47.60;;
52934;SDS011;38802;50.198;19.796;2022-12-16T16:12:22;99.90;;;48.50;;
52934;SDS011;38802;50.198;19.796;2022-12-16T16:15:10;117.20;;;48.80;;
52934;SDS011;38802;50.198;19.796;2022-12-16T16:17:59;112.40;;;45.90;;
52934;SDS011;38802;50.198;19.796;2022-12-16T16:20:47;112.20;;;49.80;;
52934;SDS011;38802;50.198;19.796;2022-12-16T16:23:33;128.70;;;57.00;;
52934;SDS011;38802;50.198;19.796;2022-12-16T16:26:20;109.50;;;46.80;;
52934;SDS011;38802;50.198;19.796;2022-12-16T16:29:08;109.70;;;50.10;;
52934;SDS011;38802;50.198;19.796;2022-12-16T16:31:56;109.50;;;48.90;;
52934;SDS011;38802;50.198;19.796;2022-12-16T16:34:42;113.90;;;55.80;;
52934;SDS011;38802;50.198;19.796;2022-12-16T16:37:27;104.40;;;50.20;;
52934;SDS011;38802;50.198;19.796;2022-12-16T16:40:33;104.10;;;49.30;;
52934;SDS011;38802;50.198;19.796;2022-12-16T16:43:21;99.80;;;44.90;;
52934;SDS011;38802;50.198;19.796;2022-12-16T16:49:22;89.10;;;39.00;;
52934;SDS011;38802;50.198;19.796;2022-12-16T16:52:09;93.80;;;41.60;;
52934;SDS011;38802;50.198;19.796;2022-12-16T16:54:59;91.50;;;43.10;;
52934;SDS011;38802;50.198;19.796;2022-12-16T16:57:45;103.20;;;48.00;;
52934;SDS011;38802;50.198;19.796;2022-12-16T17:00:30;93.50;;;44.30;;
52934;SDS011;38802;50.198;19.796;2022-12-16T17:03:16;113.20;;;46.10;;
52934;SDS011;38802;50.198;19.796;2022-12-16T17:06:03;105.80;;;50.20;;
52934;SDS011;38802;50.198;19.796;2022-12-16T17:08:49;135.00;;;55.60;;
52934;SDS011;38802;50.198;19.796;2022-12-16T17:11:36;121.60;;;49.40;;
52934;SDS011;38802;50.198;19.796;2022-12-16T17:17:07;115.00;;;49.50;;
52934;SDS011;38802;50.198;19.796;2022-12-16T17:22:39;105.50;;;46.10;;
52934;SDS011;38802;50.198;19.796;2022-12-16T17:25:25;103.80;;;45.40;;
52934;SDS011;38802;50.198;19.796;2022-12-16T17:28:14;124.30;;;52.20;;
52934;SDS011;38802;50.198;19.796;2022-12-16T17:31:00;107.60;;;46.10;;
52934;SDS011;38802;50.198;19.796;2022-12-16T17:33:45;109.10;;;49.90;;
52934;SDS011;38802;50.198;19.796;2022-12-16T17:36:31;107.90;;;48.10;;
52934;SDS011;38802;50.198;19.796;2022-12-16T17:39:16;97.70;;;43.70;;
52934;SDS011;38802;50.198;19.796;2022-12-16T17:42:02;101.80;;;46.50;;
52934;SDS011;38802;50.198;19.796;2022-12-16T17:44:47;108.10;;;43.90;;
52934;SDS011;38802;50.198;19.796;2022-12-16T17:47:33;108.30;;;45.40;;
52934;SDS011;38802;50.198;19.796;2022-12-16T17:50:19;110.00;;;44.30;;
52934;SDS011;38802;50.198;19.796;2022-12-16T17:53:04;114.00;;;47.60;;
52934;SDS011;38802;50.198;19.796;2022-12-16T17:55:50;114.00;;;48.10;;
52934;SDS011;38802;50.198;19.796;2022-12-16T17:58:36;109.70;;;45.00;;
52934;SDS011;38802;50.198;19.796;2022-12-16T18:01:22;107.20;;;46.10;;
52934;SDS011;38802;50.198;19.796;2022-12-16T18:04:08;105.70;;;47.60;;
52934;SDS011;38802;50.198;19.796;2022-12-16T18:06:56;113.60;;;47.60;;
52934;SDS011;38802;50.198;19.796;2022-12-16T18:09:41;97.50;;;43.90;;
52934;SDS011;38802;50.198;19.796;2022-12-16T18:12:26;101.40;;;43.30;;
52934;SDS011;38802;50.198;19.796;2022-12-16T18:15:12;98.20;;;42.20;;
52934;SDS011;38802;50.198;19.796;2022-12-16T18:17:58;107.60;;;43.00;;
52934;SDS011;38802;50.198;19.796;2022-12-16T18:20:43;104.80;;;44.00;;
52934;SDS011;38802;50.198;19.796;2022-12-16T18:23:29;99.00;;;43.30;;
52934;SDS011;38802;50.198;19.796;2022-12-16T18:26:15;107.00;;;45.00;;
52934;SDS011;38802;50.198;19.796;2022-12-16T18:29:00;95.40;;;43.50;;
52934;SDS011;38802;50.198;19.796;2022-12-16T18:31:46;104.90;;;45.60;;
52934;SDS011;38802;50.198;19.796;2022-12-16T19:35:45;91.10;;;37.30;;
52934;SDS011;38802;50.198;19.796;2022-12-16T19:38:37;94.60;;;40.50;;
52934;SDS011;38802;50.198;19.796;2022-12-16T19:41:24;102.40;;;38.80;;
52934;SDS011;38802;50.198;19.796;2022-12-16T19:44:11;88.10;;;36.90;;
52934;SDS011;38802;50.198;19.796;2022-12-16T19:46:58;101.00;;;38.50;;